Time;durP1;ratioP1;P1;durP2;ratioP2;P2;SDS_P1;SDS_P2;PMS_P1;PMS_P2;Temp;Humidity;BMP_temperature;BMP_pressure;BME280_temperature;BME280_humidity;BME280_pressure;Samples;Min_cycle;Max_cycle;Signal;HPM_P1;HPM_P2
2023/09/15 00:01:08;;;;;;;6.32;4.57;;;13.80;99.90;;;;;;5040957;28;20022;-82
2023/09/15 00:03:35;;;;;;;6.15;4.00;;;13.80;99.90;;;;;;5029407;28;20032;-82
2023/09/15 00:06:01;;;;;;;7.13;4.35;;;13.60;99.90;;;;;;5041364;28;20025;-82
2023/09/15 00:08:28;;;;;;;6.45;4.38;;;13.50;99.90;;;;;;5038831;28;20452;-83
2023/09/15 00:10:54;;;;;;;6.72;4.25;;;13.40;99.90;;;;;;5037860;28;20032;-83
2023/09/15 00:13:20;;;;;;;5.03;4.03;;;13.30;99.90;;;;;;5039230;28;20104;-82
2023/09/15 00:15:50;;;;;;;7.70;3.90;;;13.30;99.90;;;;;;5037601;28;20033;-83
2023/09/15 00:18:16;;;;;;;5.78;4.05;;;13.30;99.90;;;;;;5039434;28;20389;-83
2023/09/15 00:20:42;;;;;;;6.15;3.92;;;13.30;99.90;;;;;;5037164;28;20030;-82
2023/09/15 00:23:07;;;;;;;6.35;4.15;;;13.30;99.90;;;;;;5036959;28;20025;-82
2023/09/15 00:25:33;;;;;;;6.80;4.03;;;13.40;99.90;;;;;;5037048;28;20033;-82
2023/09/15 00:28:01;;;;;;;5.90;3.70;;;13.30;99.90;;;;;;5036862;28;20508;-83
2023/09/15 00:30:28;;;;;;;4.88;3.67;;;13.30;99.90;;;;;;5038920;28;20018;-83
2023/09/15 00:32:54;;;;;;;6.10;4.05;;;13.40;99.90;;;;;;5038264;28;20029;-83
2023/09/15 00:35:23;;;;;;;5.85;3.80;;;13.40;99.90;;;;;;5038024;28;20021;-83
2023/09/15 00:37:49;;;;;;;7.95;5.25;;;13.40;99.90;;;;;;5053369;28;20048;-82
2023/09/15 00:40:17;;;;;;;5.82;4.47;;;13.30;99.90;;;;;;5037181;28;20100;-82
2023/09/15 00:42:47;;;;;;;7.03;4.78;;;13.20;99.90;;;;;;5038384;28;20025;-83
2023/09/15 00:45:14;;;;;;;8.70;5.13;;;13.20;99.90;;;;;;5019219;28;20394;-82
2023/09/15 00:47:43;;;;;;;7.20;4.72;;;13.10;99.90;;;;;;5036482;28;20116;-81
2023/09/15 00:50:14;;;;;;;6.10;4.07;;;13.10;99.90;;;;;;5020145;28;20033;-82
2023/09/15 00:52:44;;;;;;;;;;;13.20;99.90;;;;;;5036579;28;20397;-82
2023/09/15 00:55:13;;;;;;;5.70;4.00;;;13.10;99.90;;;;;;5036177;28;19920;-82
2023/09/15 00:57:39;;;;;;;4.47;3.33;;;13.10;99.90;;;;;;5036614;28;20060;-83
2023/09/15 01:00:12;;;;;;;5.78;3.83;;;13.20;99.90;;;;;;5036609;28;20037;-82
2023/09/15 01:02:42;;;;;;;6.25;3.85;;;13.20;99.90;;;;;;5037223;28;20022;-82
2023/09/15 01:05:10;;;;;;;7.83;4.60;;;13.20;99.90;;;;;;5037359;28;20107;-82
2023/09/15 01:07:37;;;;;;;7.90;4.90;;;13.20;99.90;;;;;;5037278;28;20628;-82
2023/09/15 01:10:07;;;;;;;8.23;5.13;;;13.20;99.90;;;;;;5036973;28;20040;-82
2023/09/15 01:12:33;;;;;;;6.90;4.57;;;13.20;99.90;;;;;;5035710;28;20026;-82
2023/09/15 01:15:01;;;;;;;7.40;5.03;;;13.20;99.90;;;;;;5035799;28;20390;-82
2023/09/15 01:17:32;;;;;;;8.40;5.10;;;13.20;99.90;;;;;;5035841;28;20041;-82
2023/09/15 01:20:11;;;;;;;8.05;5.10;;;13.30;99.90;;;;;;5036901;28;20018;-81
2023/09/15 01:22:55;;;;;;;8.02;5.40;;;13.30;99.90;;;;;;5036833;28;20025;-82
2023/09/15 01:25:43;;;;;;;7.28;4.97;;;13.40;99.90;;;;;;5036495;28;20026;-82
2023/09/15 01:28:27;;;;;;;7.68;5.28;;;13.40;99.90;;;;;;5037308;28;20025;-81
2023/09/15 01:30:54;;;;;;;9.77;6.07;;;13.30;99.90;;;;;;5035622;28;20103;-82
2023/09/15 01:33:21;;;;;;;8.35;5.72;;;13.20;99.90;;;;;;5037308;28;20022;-82
2023/09/15 01:35:47;;;;;;;9.02;5.05;;;13.20;99.90;;;;;;5036887;28;20117;-82
2023/09/15 01:38:12;;;;;;;9.85;5.60;;;13.20;99.90;;;;;;5051677;28;20065;-82
2023/09/15 01:40:38;;;;;;;8.50;5.60;;;13.10;99.90;;;;;;5034903;28;20512;-83
2023/09/15 01:43:04;;;;;;;9.00;5.95;;;13.10;99.90;;;;;;5035136;28;20028;-82
2023/09/15 01:45:30;;;;;;;10.43;6.18;;;13.10;99.90;;;;;;5035709;28;20022;-82
2023/09/15 01:47:56;;;;;;;8.68;5.97;;;13.10;99.90;;;;;;5036377;28;20028;-82
2023/09/15 01:50:23;;;;;;;9.40;5.65;;;13.10;99.90;;;;;;5034728;28;20030;-82
2023/09/15 01:52:49;;;;;;;7.90;5.57;;;13.20;99.90;;;;;;5035805;28;20025;-82
2023/09/15 01:55:16;;;;;;;9.05;6.13;;;13.20;99.90;;;;;;5034352;28;20397;-81
2023/09/15 01:57:42;;;;;;;8.32;5.25;;;13.20;99.90;;;;;;5035547;28;20041;-82
2023/09/15 02:00:09;;;;;;;7.10;5.15;;;13.20;99.90;;;;;;5034982;28;20025;-82
2023/09/15 02:02:34;;;;;;;7.20;5.38;;;13.20;99.90;;;;;;5035822;28;20024;-82
2023/09/15 02:05:00;;;;;;;7.97;5.57;;;13.20;99.90;;;;;;5034795;28;20025;-82
2023/09/15 02:07:26;;;;;;;8.55;5.97;;;13.20;99.90;;;;;;5034325;28;20030;-83
2023/09/15 02:09:51;;;;;;;7.95;6.03;;;13.10;99.90;;;;;;5034317;28;20029;-82
2023/09/15 02:12:17;;;;;;;7.25;5.68;;;13.20;99.90;;;;;;5034457;28;20112;-82
2023/09/15 02:14:44;;;;;;;9.75;5.93;;;13.20;99.90;;;;;;5034404;28;20030;-81
2023/09/15 02:17:14;;;;;;;7.40;5.13;;;13.10;99.90;;;;;;5035354;28;20053;-82
2023/09/15 02:19:41;;;;;;;7.07;5.45;;;13.20;99.90;;;;;;5035875;28;20029;-82
2023/09/15 02:22:07;;;;;;;7.47;5.45;;;13.10;99.90;;;;;;5018085;28;20513;-81
2023/09/15 02:24:33;;;;;;;10.48;6.97;;;13.10;99.90;;;;;;5033771;28;20048;-83
2023/09/15 02:27:00;;;;;;;8.73;5.90;;;13.10;99.90;;;;;;5034201;28;20033;-82
2023/09/15 02:29:25;;;;;;;7.35;5.43;;;13.10;99.90;;;;;;5034356;28;20029;-82
2023/09/15 02:31:51;;;;;;;7.70;5.55;;;13.10;99.90;;;;;;5034342;28;20118;-83
2023/09/15 02:34:17;;;;;;;7.22;5.55;;;13.20;99.90;;;;;;5035361;28;20044;-83
2023/09/15 02:36:43;;;;;;;7.65;5.28;;;13.20;99.90;;;;;;5033940;28;20034;-82
2023/09/15 02:39:09;;;;;;;6.88;5.55;;;13.20;99.90;;;;;;5034067;28;20032;-82
2023/09/15 02:41:35;;;;;;;7.18;5.35;;;13.20;99.90;;;;;;5017082;28;20026;-83
2023/09/15 02:44:01;;;;;;;6.85;5.22;;;13.20;99.90;;;;;;5035378;28;20025;-82
2023/09/15 02:46:27;;;;;;;8.38;6.10;;;13.10;99.90;;;;;;5034082;28;20057;-82
2023/09/15 02:48:53;;;;;;;8.65;5.78;;;13.20;99.90;;;;;;5035256;28;20398;-83
2023/09/15 02:51:18;;;;;;;8.27;6.05;;;13.20;99.90;;;;;;5035517;28;20030;-82
2023/09/15 02:53:44;;;;;;;8.13;5.95;;;13.20;99.90;;;;;;5035575;28;20390;-82
2023/09/15 02:56:10;;;;;;;8.90;6.65;;;13.30;99.90;;;;;;5035451;28;20026;-82
2023/09/15 02:58:36;;;;;;;10.43;5.97;;;13.30;99.90;;;;;;5034332;28;20030;-82
2023/09/15 03:01:11;;;;;;;8.55;5.75;;;13.30;99.90;;;;;;5042349;28;20052;-82
2023/09/15 03:03:37;;;;;;;7.15;5.32;;;13.30;99.90;;;;;;5040428;28;20022;-83
2023/09/15 03:06:04;;;;;;;8.05;5.70;;;13.30;99.90;;;;;;5035828;28;20393;-83
2023/09/15 03:08:30;;;;;;;8.40;5.43;;;13.30;99.90;;;;;;5035430;28;20026;-82
2023/09/15 03:10:55;;;;;;;7.10;5.07;;;13.30;99.90;;;;;;5033917;28;20053;-83
2023/09/15 03:13:21;;;;;;;6.95;4.95;;;13.30;99.90;;;;;;5034427;28;20037;-82
2023/09/15 03:15:47;;;;;;;7.40;5.38;;;13.40;99.90;;;;;;5018245;28;20034;-82
2023/09/15 03:18:12;;;;;;;5.65;4.60;;;13.40;99.90;;;;;;5035715;28;20048;-82
2023/09/15 03:20:38;;;;;;;6.93;4.57;;;13.30;99.90;;;;;;5035670;28;20105;-82
2023/09/15 03:23:04;;;;;;;6.43;4.50;;;13.30;99.90;;;;;;5033846;28;20504;-82
2023/09/15 03:25:29;;;;;;;6.05;4.25;;;13.30;99.90;;;;;;5033789;28;20029;-83
2023/09/15 03:27:55;;;;;;;6.18;4.88;;;13.20;99.90;;;;;;5035204;28;20040;-82
2023/09/15 03:30:21;;;;;;;6.32;4.80;;;13.20;99.90;;;;;;5035112;28;20034;-82
2023/09/15 03:32:47;;;;;;;6.05;4.85;;;13.20;99.90;;;;;;5035233;28;20401;-83
2023/09/15 03:35:14;;;;;;;5.95;4.70;;;13.10;99.90;;;;;;5033926;28;20022;-82
2023/09/15 03:37:40;;;;;;;6.93;4.95;;;13.10;99.90;;;;;;5035282;28;20093;-82
2023/09/15 03:40:08;;;;;;;6.85;4.95;;;13.00;99.90;;;;;;5035223;28;20013;-83
2023/09/15 03:42:35;;;;;;;6.38;4.88;;;13.00;99.90;;;;;;5036270;28;20045;-82
2023/09/15 03:45:01;;;;;;;6.93;4.95;;;12.90;99.90;;;;;;5034020;28;20052;-82
2023/09/15 03:47:26;;;;;;;6.63;5.10;;;12.90;99.90;;;;;;5033953;28;20026;-81
2023/09/15 03:49:52;;;;;;;7.10;5.20;;;12.90;99.90;;;;;;5017140;28;20116;-82
2023/09/15 03:52:18;;;;;;;7.32;5.32;;;12.90;99.90;;;;;;5033615;28;20029;-83
2023/09/15 03:54:43;;;;;;;5.40;4.03;;;12.90;99.90;;;;;;5034330;28;20026;-82
2023/09/15 03:57:09;;;;;;;9.38;5.90;;;12.80;99.90;;;;;;5034840;28;20026;-82
2023/09/15 03:59:35;;;;;;;8.18;5.15;;;12.80;99.90;;;;;;5014076;28;20084;-82
2023/09/15 04:02:03;;;;;;;6.10;4.97;;;12.80;99.90;;;;;;5015294;28;20033;-82
2023/09/15 04:04:29;;;;;;;6.22;4.90;;;12.80;99.90;;;;;;5014830;28;20029;-83
2023/09/15 04:06:55;;;;;;;7.28;5.07;;;12.80;99.90;;;;;;4998510;28;20030;-83
2023/09/15 04:09:24;;;;;;;7.13;5.00;;;12.80;99.90;;;;;;5015449;28;20030;-82
2023/09/15 04:11:51;;;;;;;6.43;4.32;;;12.80;99.90;;;;;;4998503;28;20038;-82
2023/09/15 04:14:17;;;;;;;6.95;5.40;;;12.80;99.90;;;;;;5018894;28;20030;-82
2023/09/15 04:16:43;;;;;;;9.07;6.50;;;12.80;99.90;;;;;;5038064;28;20038;-83
2023/09/15 04:19:09;;;;;;;8.05;5.95;;;12.80;99.90;;;;;;5021451;28;20033;-83
2023/09/15 04:21:37;;;;;;;9.10;6.45;;;12.90;99.90;;;;;;5019136;28;20395;-82
2023/09/15 04:24:03;;;;;;;8.32;6.07;;;12.80;99.90;;;;;;5004217;28;20379;-82
2023/09/15 04:26:29;;;;;;;8.40;5.75;;;12.80;99.90;;;;;;5020666;28;20085;-81
2023/09/15 04:28:55;;;;;;;8.07;6.15;;;12.80;99.90;;;;;;5027867;28;20512;-83
2023/09/15 04:31:21;;;;;;;8.35;5.63;;;12.80;99.90;;;;;;5018175;28;20034;-81
2023/09/15 04:33:48;;;;;;;9.80;5.85;;;12.80;99.90;;;;;;5021300;28;20033;-82
2023/09/15 04:36:14;;;;;;;7.63;5.75;;;12.70;99.90;;;;;;5020942;28;20573;-82
2023/09/15 04:38:39;;;;;;;8.77;6.25;;;12.70;99.90;;;;;;5027039;28;20065;-82
2023/09/15 04:41:05;;;;;;;9.43;6.80;;;12.80;99.90;;;;;;5040310;28;20022;-81
2023/09/15 04:43:31;;;;;;;9.80;6.55;;;12.90;99.90;;;;;;5035002;28;20139;-83
2023/09/15 04:45:57;;;;;;;8.75;5.95;;;12.90;99.90;;;;;;5043571;28;20061;-82
2023/09/15 04:48:23;;;;;;;10.70;6.93;;;12.90;99.90;;;;;;5025896;28;20044;-82
2023/09/15 04:50:49;;;;;;;9.75;6.10;;;13.00;99.90;;;;;;5028793;28;20029;-82
2023/09/15 04:53:15;;;;;;;7.93;5.30;;;13.00;99.90;;;;;;5035386;28;20025;-82
2023/09/15 04:55:40;;;;;;;8.60;6.10;;;13.00;99.90;;;;;;5018114;28;20056;-82
2023/09/15 04:58:06;;;;;;;9.32;5.38;;;13.00;99.90;;;;;;5034934;28;20021;-82
2023/09/15 05:00:34;;;;;;;7.95;5.55;;;13.00;99.90;;;;;;5034767;28;20033;-81
2023/09/15 05:03:01;;;;;;;7.70;5.30;;;13.00;99.90;;;;;;5034700;28;20155;-82
2023/09/15 05:05:27;;;;;;;6.95;5.10;;;13.00;99.90;;;;;;5034507;28;20100;-82
2023/09/15 05:07:52;;;;;;;8.38;5.25;;;13.00;99.90;;;;;;5034567;28;20454;-82
2023/09/15 05:10:18;;;;;;;7.82;5.30;;;13.10;99.90;;;;;;5034357;28;20072;-82
2023/09/15 05:12:44;;;;;;;7.32;5.30;;;13.10;99.90;;;;;;5018190;28;20025;-82
2023/09/15 05:15:10;;;;;;;7.28;5.18;;;13.10;99.90;;;;;;5051148;28;20075;-82
2023/09/15 05:17:37;;;;;;;7.32;5.20;;;13.10;99.90;;;;;;5018001;28;20116;-82
2023/09/15 05:20:03;;;;;;;7.47;5.30;;;13.10;99.90;;;;;;5034583;28;20030;-82
2023/09/15 05:22:29;;;;;;;7.82;4.70;;;13.10;99.90;;;;;;5034665;28;20493;-82
2023/09/15 05:24:55;;;;;;;7.00;5.15;;;13.10;99.90;;;;;;5034199;28;20039;-82
2023/09/15 05:27:21;;;;;;;7.80;5.38;;;13.20;99.90;;;;;;5034459;28;20030;-82
2023/09/15 05:29:47;;;;;;;8.85;5.80;;;13.20;99.90;;;;;;5017788;28;20033;-82
2023/09/15 05:32:13;;;;;;;7.50;5.63;;;13.20;99.90;;;;;;5033662;28;20052;-82
2023/09/15 05:34:39;;;;;;;7.50;5.47;;;13.20;99.90;;;;;;5034589;28;20029;-82
2023/09/15 05:37:05;;;;;;;7.15;4.82;;;13.10;99.90;;;;;;5035336;28;20108;-82
2023/09/15 05:39:33;;;;;;;7.63;5.30;;;13.20;99.90;;;;;;5034199;28;20109;-82
2023/09/15 05:42:00;;;;;;;6.63;4.85;;;13.20;99.90;;;;;;5034253;28;20516;-82
2023/09/15 05:44:26;;;;;;;7.13;4.93;;;13.20;99.90;;;;;;5017982;28;20099;-83
2023/09/15 05:46:59;;;;;;;7.57;4.90;;;13.30;99.90;;;;;;5018369;28;20120;-82
2023/09/15 05:49:25;;;;;;;6.57;4.95;;;13.30;99.90;;;;;;5034417;28;20079;-82
2023/09/15 05:51:51;;;;;;;6.95;4.60;;;13.30;99.90;;;;;;5034071;28;20108;-82
2023/09/15 05:54:16;;;;;;;6.82;4.97;;;13.30;99.90;;;;;;5019401;28;20037;-82
2023/09/15 05:56:42;;;;;;;8.57;5.75;;;13.40;99.90;;;;;;5047273;28;20029;-82
2023/09/15 05:59:08;;;;;;;7.88;5.28;;;13.40;99.90;;;;;;5041722;28;20033;-82
2023/09/15 06:01:34;;;;;;;7.43;5.28;;;13.40;99.90;;;;;;5019834;28;20037;-83
2023/09/15 06:04:00;;;;;;;9.02;6.15;;;13.40;99.90;;;;;;5020455;28;20021;-83
2023/09/15 06:06:26;;;;;;;10.10;6.60;;;13.40;99.90;;;;;;5036828;28;20029;-83
2023/09/15 06:08:52;;;;;;;8.65;6.00;;;13.50;99.90;;;;;;5036522;28;20029;-82
2023/09/15 06:11:18;;;;;;;10.35;7.22;;;13.50;99.90;;;;;;5035804;28;20490;-83
2023/09/15 06:13:43;;;;;;;10.48;6.47;;;13.50;99.90;;;;;;5036144;28;20572;-83
2023/09/15 06:16:09;;;;;;;10.65;6.43;;;13.50;99.90;;;;;;5035263;28;20036;-82
2023/09/15 06:18:35;;;;;;;11.48;6.72;;;13.50;99.90;;;;;;5035289;28;20512;-82
2023/09/15 06:21:00;;;;;;;10.98;7.32;;;13.50;99.90;;;;;;5036219;28;20036;-82
2023/09/15 06:23:28;;;;;;;14.20;9.48;;;13.40;99.90;;;;;;5036394;28;20155;-82
2023/09/15 06:25:54;;;;;;;13.45;8.00;;;13.40;99.90;;;;;;5035317;28;20033;-82
2023/09/15 06:28:19;;;;;;;11.55;7.88;;;13.40;99.90;;;;;;5034803;28;20087;-82
2023/09/15 06:30:46;;;;;;;10.43;6.78;;;13.40;99.90;;;;;;5014720;28;20025;-82
2023/09/15 06:33:11;;;;;;;13.13;8.30;;;13.40;99.90;;;;;;5014512;28;20030;-82
2023/09/15 06:35:38;;;;;;;10.43;7.93;;;13.40;99.90;;;;;;5009040;28;20107;-82
2023/09/15 06:38:10;;;;;;;9.98;6.85;;;13.50;99.90;;;;;;5014576;28;20052;-82
2023/09/15 06:40:36;;;;;;;10.18;6.72;;;13.50;99.90;;;;;;5030274;28;20018;-82
2023/09/15 06:43:04;;;;;;;10.88;7.00;;;13.50;99.90;;;;;;5013586;28;20375;-82
2023/09/15 06:45:31;;;;;;;13.27;8.35;;;13.50;99.90;;;;;;5014416;28;20054;-83
2023/09/15 06:47:57;;;;;;;13.75;8.27;;;13.60;99.90;;;;;;5030473;28;20030;-83
2023/09/15 06:50:23;;;;;;;11.57;7.60;;;13.60;99.90;;;;;;5031337;28;20038;-82
2023/09/15 06:52:49;;;;;;;8.95;6.50;;;13.70;99.90;;;;;;5014800;28;20054;-82
2023/09/15 06:55:15;;;;;;;8.77;6.10;;;13.70;99.90;;;;;;5014686;28;20022;-82
2023/09/15 06:57:40;;;;;;;12.40;7.88;;;13.70;99.90;;;;;;5034015;28;20034;-82
2023/09/15 07:00:07;;;;;;;9.45;6.55;;;13.70;99.90;;;;;;5033530;28;20042;-82
2023/09/15 07:02:33;;;;;;;9.60;6.85;;;13.80;99.90;;;;;;5016490;28;20029;-82
2023/09/15 07:04:58;;;;;;;7.95;5.45;;;13.80;99.90;;;;;;5013207;28;20026;-82
2023/09/15 07:07:24;;;;;;;10.93;7.93;;;13.90;99.90;;;;;;5029719;28;20029;-82
2023/09/15 07:09:50;;;;;;;12.50;7.50;;;13.90;99.90;;;;;;4996802;28;20061;-82
2023/09/15 07:12:16;;;;;;;11.20;7.03;;;14.00;99.90;;;;;;5012800;28;20080;-82
2023/09/15 07:14:42;;;;;;;10.10;6.60;;;14.00;99.90;;;;;;5014713;28;20046;-81
2023/09/15 07:17:08;;;;;;;11.05;8.15;;;14.00;99.90;;;;;;5015926;28;20030;-81
2023/09/15 07:19:33;;;;;;;8.93;6.50;;;14.10;99.90;;;;;;5030859;28;20540;-82
2023/09/15 07:21:59;;;;;;;10.45;6.72;;;14.10;99.90;;;;;;5030071;28;20153;-82
2023/09/15 07:24:25;;;;;;;13.02;8.57;;;14.10;99.90;;;;;;5013330;28;20089;-82
2023/09/15 07:26:51;;;;;;;12.10;7.70;;;14.10;99.90;;;;;;5029609;28;20429;-82
2023/09/15 07:29:16;;;;;;;13.15;9.18;;;14.10;99.90;;;;;;5029483;28;20057;-82
2023/09/15 07:31:42;;;;;;;12.98;8.25;;;14.10;99.90;;;;;;5032252;28;20095;-81
2023/09/15 07:34:09;;;;;;;11.80;8.50;;;14.00;99.90;;;;;;5033789;28;20509;-81
2023/09/15 07:36:35;;;;;;;12.35;8.30;;;13.90;99.90;;;;;;5032271;28;20528;-82
2023/09/15 07:39:01;;;;;;;10.50;7.55;;;13.90;99.90;;;;;;5032373;28;20025;-81
2023/09/15 07:41:26;;;;;;;12.35;8.70;;;13.90;99.90;;;;;;5032477;28;20035;-81
2023/09/15 07:43:55;;;;;;;11.02;7.53;;;13.90;99.90;;;;;;5015854;28;20112;-82
2023/09/15 07:46:21;;;;;;;10.77;8.07;;;13.90;99.90;;;;;;5034088;28;20446;-82
2023/09/15 07:48:46;;;;;;;10.13;7.22;;;13.90;99.90;;;;;;5033795;28;20106;-81
2023/09/15 07:51:13;;;;;;;12.70;8.43;;;14.00;99.90;;;;;;5032618;28;20091;-81
2023/09/15 07:53:39;;;;;;;9.70;6.85;;;14.00;99.90;;;;;;5032329;28;20125;-82
2023/09/15 07:56:05;;;;;;;9.73;7.55;;;14.10;99.90;;;;;;5035836;28;20533;-81
2023/09/15 07:58:31;;;;;;;10.10;7.63;;;14.20;99.90;;;;;;5019624;28;20522;-81
2023/09/15 08:00:57;;;;;;;11.07;7.75;;;14.30;99.90;;;;;;5036182;28;20075;-81
2023/09/15 08:03:23;;;;;;;13.15;9.50;;;14.50;99.90;;;;;;5036326;28;20040;-81
2023/09/15 08:05:49;;;;;;;14.85;10.63;;;14.60;99.90;;;;;;5019343;28;20036;-81
2023/09/15 08:08:15;;;;;;;12.57;9.77;;;14.60;99.90;;;;;;5037026;28;20478;-81
2023/09/15 08:10:40;;;;;;;15.02;10.43;;;14.70;99.90;;;;;;5035706;28;20056;-81
2023/09/15 08:13:06;;;;;;;14.38;10.75;;;14.80;99.90;;;;;;5035957;28;20140;-81
2023/09/15 08:15:32;;;;;;;13.98;10.50;;;14.90;99.90;;;;;;5035853;28;20026;-81
2023/09/15 08:17:58;;;;;;;12.95;10.02;;;15.00;99.90;;;;;;5035507;28;20068;-81
2023/09/15 08:20:25;;;;;;;12.95;9.68;;;15.00;99.90;;;;;;5019716;28;20409;-81
2023/09/15 08:22:50;;;;;;;11.45;8.93;;;15.10;99.90;;;;;;5036983;28;20025;-81
2023/09/15 08:25:16;;;;;;;12.55;9.38;;;15.20;99.90;;;;;;5019182;28;20037;-81
2023/09/15 08:27:44;;;;;;;11.20;8.73;;;15.20;99.90;;;;;;5035414;28;20033;-81
2023/09/15 08:30:10;;;;;;;9.23;7.18;;;15.40;99.90;;;;;;5019468;28;20055;-82
2023/09/15 08:32:36;;;;;;;9.32;6.55;;;15.50;99.90;;;;;;5035689;28;20128;-82
2023/09/15 08:35:03;;;;;;;11.68;9.05;;;15.70;99.90;;;;;;5037023;28;20482;-81
2023/09/15 08:37:30;;;;;;;9.98;7.88;;;15.80;99.90;;;;;;5037166;28;20036;-82
2023/09/15 08:39:55;;;;;;;10.32;6.40;;;16.00;99.90;;;;;;5035844;28;20044;-81
2023/09/15 08:42:28;;;;;;;8.20;5.97;;;16.10;99.90;;;;;;5018768;28;20489;-82
2023/09/15 08:44:56;;;;;;;11.07;8.27;;;16.20;99.90;;;;;;5035337;28;20033;-82
2023/09/15 08:47:24;;;;;;;10.10;8.45;;;16.40;99.90;;;;;;5036890;28;20066;-81
2023/09/15 08:49:51;;;;;;;10.80;7.97;;;16.50;99.90;;;;;;5040237;28;20053;-82
2023/09/15 08:52:17;;;;;;;7.78;6.80;;;16.60;99.90;;;;;;5047511;28;20030;-82
2023/09/15 08:54:45;;;;;;;10.82;7.70;;;16.80;99.90;;;;;;5023639;28;20037;-82
2023/09/15 08:57:11;;;;;;;8.30;6.05;;;16.90;99.90;;;;;;5037419;28;20033;-82
2023/09/15 08:59:38;;;;;;;9.05;7.55;;;17.10;99.90;;;;;;5039060;28;20081;-82
2023/09/15 09:02:04;;;;;;;8.77;7.03;;;17.20;99.90;;;;;;5053469;28;20029;-82
2023/09/15 09:04:30;;;;;;;9.00;6.57;;;17.40;99.90;;;;;;5020146;28;20026;-82
2023/09/15 09:07:00;;;;;;;7.97;6.00;;;17.50;99.90;;;;;;5038290;28;20124;-82
2023/09/15 09:09:26;;;;;;;8.55;5.70;;;17.60;99.90;;;;;;5038053;28;20029;-82
2023/09/15 09:11:52;;;;;;;6.10;5.07;;;17.80;99.90;;;;;;5019402;28;20036;-82
2023/09/15 09:14:17;;;;;;;7.75;4.97;;;17.90;99.90;;;;;;5019779;28;20516;-82
2023/09/15 09:16:43;;;;;;;5.60;4.30;;;18.10;99.90;;;;;;5035683;28;20033;-82
2023/09/15 09:19:10;;;;;;;5.88;4.00;;;18.20;99.90;;;;;;5038001;28;20040;-82
2023/09/15 09:21:37;;;;;;;6.88;4.43;;;18.30;99.90;;;;;;5052296;28;20478;-83
2023/09/15 09:24:03;;;;;;;6.00;4.30;;;18.50;99.90;;;;;;5035419;28;20549;-82
2023/09/15 09:26:29;;;;;;;4.20;3.47;;;18.60;99.90;;;;;;5019110;28;20029;-83
2023/09/15 09:28:57;;;;;;;5.75;3.88;;;18.80;99.90;;;;;;5018771;28;20029;-82
2023/09/15 09:31:24;;;;;;;5.15;4.13;;;18.80;99.90;;;;;;5036504;28;20140;-82
2023/09/15 09:33:50;;;;;;;6.68;3.63;;;19.00;99.90;;;;;;5036516;28;20041;-82
2023/09/15 09:36:17;;;;;;;5.10;3.85;;;19.10;99.90;;;;;;5036258;28;20029;-82
2023/09/15 09:38:48;;;;;;;4.93;4.00;;;19.20;99.90;;;;;;5034530;28;20021;-82
2023/09/15 09:41:16;;;;;;;6.05;3.67;;;19.30;99.90;;;;;;5035971;28;20047;-81
2023/09/15 09:43:49;;;;;;;5.15;3.60;;;19.40;99.90;;;;;;5051207;28;20064;-82
2023/09/15 09:46:21;;;;;;;4.68;3.55;;;19.50;99.90;;;;;;5035902;28;20100;-82
2023/09/15 09:48:48;;;;;;;4.90;3.90;;;19.60;99.90;;;;;;5035534;28;20047;-82
2023/09/15 09:51:14;;;;;;;5.00;3.40;;;19.70;99.90;;;;;;5050607;28;20139;-82
2023/09/15 09:53:40;;;;;;;7.22;3.40;;;19.80;99.90;;;;;;5035460;28;20049;-82
2023/09/15 09:56:06;;;;;;;4.82;3.70;;;20.00;99.90;;;;;;5033736;28;20397;-82
2023/09/15 09:58:33;;;;;;;4.32;3.03;;;20.10;99.90;;;;;;5033946;28;20104;-82
2023/09/15 10:00:59;;;;;;;3.92;3.10;;;20.20;99.90;;;;;;5018325;28;20045;-83
2023/09/15 10:03:25;;;;;;;3.75;2.88;;;20.30;99.90;;;;;;5035882;28;20064;-82
2023/09/15 10:05:52;;;;;;;3.60;3.00;;;20.40;99.90;;;;;;5036091;28;20021;-83
2023/09/15 10:08:18;;;;;;;4.57;2.88;;;20.50;99.90;;;;;;5033719;28;20036;-83
2023/09/15 10:10:46;;;;;;;4.50;2.92;;;20.60;99.90;;;;;;5017549;28;20026;-82
2023/09/15 10:13:13;;;;;;;3.55;2.65;;;20.70;99.90;;;;;;5034001;28;20021;-82
2023/09/15 10:15:41;;;;;;;3.33;2.80;;;20.90;99.90;;;;;;5032962;28;20021;-82
2023/09/15 10:18:08;;;;;;;3.00;2.20;;;21.00;99.90;;;;;;5018393;28;20026;-82
2023/09/15 10:20:36;;;;;;;3.67;2.60;;;21.10;99.90;;;;;;5035391;28;20018;-83
2023/09/15 10:23:04;;;;;;;3.78;2.40;;;21.30;99.90;;;;;;5034574;28;20029;-83
2023/09/15 10:25:49;;;;;;;4.00;2.88;;;21.40;99.90;;;;;;5036091;28;20049;-82
2023/09/15 10:28:18;;;;;;;3.53;2.78;;;21.50;99.90;;;;;;5027205;28;20518;-82
2023/09/15 10:30:44;;;;;;;2.80;2.30;;;21.60;99.90;;;;;;5015324;28;20390;-82
2023/09/15 10:33:10;;;;;;;3.15;2.55;;;21.70;99.90;;;;;;5016068;28;20029;-82
2023/09/15 10:35:40;;;;;;;3.53;2.72;;;21.80;99.90;;;;;;5012753;28;20395;-82
2023/09/15 10:38:08;;;;;;;4.10;2.90;;;21.90;99.90;;;;;;5034152;28;20490;-82
2023/09/15 10:40:47;;;;;;;3.47;2.25;;;21.90;99.90;;;;;;5035119;28;20033;-82
2023/09/15 10:43:17;;;;;;;3.00;2.40;;;22.00;99.90;;;;;;5034508;28;20139;-82
2023/09/15 10:45:57;;;;;;;3.33;2.30;;;22.10;99.90;;;;;;5017578;28;20037;-82
2023/09/15 10:48:46;;;;;;;3.20;2.30;;;22.10;99.90;;;;;;5034709;28;20117;-83
2023/09/15 10:51:16;;;;;;;3.00;2.20;;;22.20;99.90;;;;;;5034152;28;20025;-83
2023/09/15 10:53:46;;;;;;;3.20;2.50;;;22.20;99.90;;;;;;5034658;28;20046;-83
2023/09/15 10:56:13;;;;;;;3.50;2.90;;;22.30;99.90;;;;;;5032943;28;20036;-83
2023/09/15 10:58:40;;;;;;;3.35;2.35;;;22.30;99.90;;;;;;5060692;28;20033;-83
2023/09/15 11:01:08;;;;;;;4.18;2.67;;;22.40;99.90;;;;;;5055280;28;20025;-83
2023/09/15 11:03:34;;;;;;;5.90;2.50;;;22.40;99.90;;;;;;5054370;28;20488;-83
2023/09/15 11:06:02;;;;;;;3.35;2.50;;;22.50;99.90;;;;;;5018821;28;20029;-83
2023/09/15 11:08:29;;;;;;;5.13;2.55;;;22.50;99.90;;;;;;5016865;28;20500;-83
2023/09/15 11:10:59;;;;;;;3.42;2.25;;;22.60;99.90;;;;;;5034002;28;20095;-83
2023/09/15 11:13:25;;;;;;;2.72;2.28;;;22.80;99.90;;;;;;5035171;28;20030;-82
2023/09/15 11:15:51;;;;;;;3.47;2.30;;;22.90;99.90;;;;;;5033626;28;20112;-82
2023/09/15 11:18:18;;;;;;;4.50;2.45;;;23.00;99.90;;;;;;5033471;28;20079;-83
2023/09/15 11:20:44;;;;;;;3.92;2.60;;;23.10;99.90;;;;;;5035088;28;20432;-82
2023/09/15 11:23:10;;;;;;;3.45;2.45;;;23.20;99.90;;;;;;5017307;28;20025;-82
2023/09/15 11:25:36;;;;;;;2.83;2.22;;;23.20;99.90;;;;;;5032990;28;20470;-82
2023/09/15 11:28:01;;;;;;;3.75;2.35;;;23.40;99.90;;;;;;5032985;28;20037;-82
2023/09/15 11:30:29;;;;;;;4.45;2.08;;;23.50;99.90;;;;;;5036075;28;20045;-83
2023/09/15 11:32:57;;;;;;;3.13;2.45;;;23.60;99.90;;;;;;5040104;28;20035;-83
2023/09/15 11:35:24;;;;;;;5.40;3.25;;;23.60;99.90;;;;;;5036951;28;20063;-82
2023/09/15 11:37:51;;;;;;;6.63;4.20;;;23.70;99.90;;;;;;5037771;28;20381;-82
2023/09/15 11:40:21;;;;;;;6.05;3.33;;;23.80;99.90;;;;;;5037341;28;20026;-82
2023/09/15 11:42:54;;;;;;;5.97;3.38;;;23.90;99.90;;;;;;5039940;28;20021;-83
2023/09/15 11:45:26;;;;;;;5.97;3.17;;;24.00;99.90;;;;;;5063650;28;20033;-83
2023/09/15 11:47:53;;;;;;;5.22;3.83;;;24.10;99.90;;;;;;5047118;28;20100;-82
2023/09/15 11:50:19;;;;;;;4.00;2.90;;;24.20;99.90;;;;;;5029743;28;20032;-83
2023/09/15 11:52:45;;;;;;;3.88;2.50;;;24.20;99.90;;;;;;5035277;28;20064;-83
2023/09/15 11:55:22;;;;;;;3.88;2.33;;;24.30;99.90;;;;;;5042700;28;20389;-83
2023/09/15 11:57:50;;;;;;;2.95;2.10;;;24.30;99.90;;;;;;5044342;28;20026;-82
2023/09/15 12:00:20;;;;;;;3.30;2.10;;;24.30;99.90;;;;;;5026992;28;20030;-82
2023/09/15 12:02:48;;;;;;;2.70;1.90;;;24.40;99.90;;;;;;5044444;28;20026;-83
2023/09/15 12:05:15;;;;;;;4.72;2.08;;;24.40;99.90;;;;;;5023080;28;20057;-83
2023/09/15 12:07:45;;;;;;;3.50;2.20;;;24.40;99.90;;;;;;5039161;28;20021;-83
2023/09/15 12:10:18;;;;;;;2.78;2.03;;;24.40;99.90;;;;;;5026976;28;20026;-83
2023/09/15 12:12:45;;;;;;;3.00;2.30;;;24.60;99.90;;;;;;5045064;28;20037;-82
2023/09/15 12:15:14;;;;;;;2.88;2.22;;;24.60;99.90;;;;;;5038691;28;20413;-82
2023/09/15 12:17:42;;;;;;;3.63;2.10;;;24.70;99.90;;;;;;5039769;28;20025;-83
2023/09/15 12:20:08;;;;;;;3.30;2.30;;;24.70;99.90;;;;;;5040404;28;20033;-82
2023/09/15 12:22:41;;;;;;;5.85;2.78;;;24.80;99.90;;;;;;5021065;28;22065;-82
2023/09/15 12:25:09;;;;;;;2.60;2.00;;;25.00;99.90;;;;;;5039046;28;20481;-83
2023/09/15 12:27:38;;;;;;;3.55;2.10;;;25.00;99.90;;;;;;5040219;28;20040;-82
2023/09/15 12:30:05;;;;;;;5.30;2.10;;;25.10;99.90;;;;;;5041252;28;20431;-83
2023/09/15 12:32:32;;;;;;;3.40;1.80;;;25.20;99.90;;;;;;5038537;28;20038;-83
2023/09/15 12:34:58;;;;;;;2.70;2.03;;;25.20;99.90;;;;;;5033715;28;20026;-83
2023/09/15 12:37:29;;;;;;;2.97;1.77;;;25.40;99.90;;;;;;5037604;28;20029;-82
2023/09/15 12:39:55;;;;;;;3.83;1.88;;;25.50;98.90;;;;;;5021464;28;20030;-82
2023/09/15 12:42:20;;;;;;;3.03;1.90;;;25.60;99.20;;;;;;5018024;28;20512;-83
2023/09/15 12:44:46;;;;;;;3.05;1.70;;;25.60;99.30;;;;;;5037137;28;20393;-82